createdAt,value
2023-03-23T15:58:34.045Z,45.07
2023-03-23T16:01:08.326Z,45.34
2023-03-23T16:03:42.628Z,45.54
2023-03-23T16:06:24.535Z,45.40
2023-03-23T16:08:55.344Z,46.25
2023-03-23T16:11:26.268Z,46.60
2023-03-23T16:13:57.297Z,47.14
2023-03-23T16:16:29.308Z,48.80
2023-03-23T16:18:58.518Z,49.77
2023-03-23T16:21:28.000Z,50.54
2023-03-23T16:23:58.286Z,51.68
2023-03-23T16:26:27.481Z,51.71
2023-03-23T16:29:09.895Z,53.42
2023-03-23T16:31:42.387Z,53.61
2023-03-23T16:34:11.766Z,53.73
2023-03-23T16:36:41.436Z,54.86
2023-03-23T16:39:12.506Z,56.22
2023-03-23T16:41:42.542Z,57.96
2023-03-23T16:44:13.986Z,58.60
2023-03-23T16:46:43.174Z,59.10
2023-03-23T16:49:12.470Z,58.59
2023-03-23T16:51:43.195Z,60.12
2023-03-23T16:54:12.635Z,59.82
2023-03-23T16:56:46.232Z,61.02
2023-03-23T16:59:17.176Z,60.74
2023-03-23T17:01:46.947Z,61.39
2023-03-23T17:04:16.315Z,65.11
2023-03-23T17:06:46.399Z,68.87
2023-03-23T17:09:15.932Z,70.44
2023-03-23T17:11:45.823Z,74.42
2023-03-23T17:14:16.994Z,73.23
2023-03-23T17:16:46.538Z,72.81
2023-03-23T17:19:16.407Z,70.84
2023-03-23T17:21:45.814Z,71.13
2023-03-23T17:24:15.048Z,71.54
2023-03-23T17:26:44.587Z,73.02
2023-03-23T17:29:13.817Z,71.27
2023-03-23T17:31:44.811Z,72.09
2023-03-23T17:34:18.735Z,73.49
2023-03-23T17:36:49.008Z,72.32
2023-03-23T17:39:18.483Z,73.80
2023-03-23T17:41:47.977Z,73.28
2023-03-23T17:44:17.185Z,72.92
2023-03-23T17:46:48.447Z,73.76
2023-03-23T17:49:18.141Z,75.54
2023-03-23T17:51:47.430Z,80.04
2023-03-23T17:54:17.021Z,80.59
2023-03-23T17:56:46.353Z,80.54
2023-03-23T17:59:16.469Z,78.32
2023-03-23T18:01:47.947Z,78.17
2023-03-23T18:04:19.980Z,82.44
2023-03-23T18:06:50.527Z,83.73
2023-03-23T18:09:20.113Z,84.41
2023-03-23T18:11:49.978Z,83.22
2023-03-23T18:14:19.728Z,86.48
2023-03-23T18:16:50.512Z,90.01
2023-03-23T18:19:21.950Z,88.04
2023-03-23T18:21:51.139Z,91.30
2023-03-23T18:24:21.034Z,94.33
2023-03-23T18:26:50.319Z,95.28
2023-03-23T18:29:20.298Z,94.84
2023-03-23T18:31:50.757Z,94.69
2023-03-23T18:34:21.603Z,97.07
2023-03-23T18:36:51.204Z,100.00
2023-03-23T18:39:20.622Z,100.00
2023-03-23T18:41:50.058Z,100.00
2023-03-23T18:44:19.587Z,100.00
2023-03-23T18:46:49.041Z,100.00
2023-03-23T18:49:18.363Z,81.74
2023-03-23T18:51:49.129Z,86.40
2023-03-23T18:54:18.982Z,94.73
2023-03-23T18:56:48.254Z,98.43
2023-03-23T18:59:17.974Z,97.86
2023-03-23T19:01:47.223Z,100.00
2023-03-23T19:04:16.954Z,100.00
2023-03-23T19:06:46.502Z,99.19
2023-03-23T19:09:17.297Z,100.00
2023-03-23T19:11:47.471Z,100.00
2023-03-23T19:14:18.147Z,100.00
2023-03-23T19:16:47.495Z,100.00
2023-03-23T19:19:16.937Z,100.00
2023-03-23T19:21:47.283Z,100.00
2023-03-23T19:24:18.852Z,100.00
2023-03-23T19:26:49.039Z,100.00
2023-03-23T19:31:52.866Z,100.00
2023-03-23T19:34:24.089Z,100.00
2023-03-23T19:36:59.650Z,100.00
2023-03-23T19:39:36.952Z,100.00
2023-03-23T19:42:07.183Z,100.00
2023-03-23T19:44:37.845Z,100.00
2023-03-23T19:47:07.522Z,100.00
2023-03-23T19:49:37.251Z,100.00
2023-03-23T19:52:12.534Z,100.00
2023-03-23T19:54:43.845Z,100.00
2023-03-23T19:57:13.258Z,100.00
2023-03-23T19:59:42.988Z,100.00
2023-03-23T20:02:13.584Z,100.00
2023-03-23T20:04:43.694Z,100.00
2023-03-23T20:07:14.869Z,100.00
2023-03-23T20:09:53.349Z,100.00
2023-03-23T20:12:30.311Z,100.00
2023-03-23T20:15:15.354Z,100.00
2023-03-23T20:17:57.800Z,100.00
2023-03-23T20:20:28.119Z,100.00
2023-03-23T20:22:59.059Z,100.00
2023-03-23T20:25:30.957Z,100.00
2023-03-23T20:28:00.766Z,100.00
2023-03-23T20:30:30.390Z,100.00
2023-03-23T20:33:01.010Z,100.00
2023-03-23T20:35:31.144Z,100.00
2023-03-23T20:38:01.151Z,100.00
2023-03-23T20:40:32.820Z,100.00
2023-03-23T20:43:04.031Z,100.00
2023-03-23T20:45:33.494Z,100.00
2023-03-23T20:48:02.849Z,100.00
2023-03-23T20:50:32.421Z,100.00
2023-03-23T20:53:02.209Z,100.00
2023-03-23T20:55:33.299Z,100.00
2023-03-23T20:58:02.783Z,100.00
2023-03-23T21:00:32.207Z,100.00
2023-03-23T21:03:01.383Z,100.00
2023-03-23T21:05:30.916Z,100.00
2023-03-23T21:08:00.120Z,100.00
2023-03-23T21:10:30.738Z,100.00
2023-03-23T21:13:02.380Z,100.00
2023-03-23T21:15:34.047Z,100.00
2023-03-23T21:18:04.449Z,100.00
2023-03-23T21:20:34.566Z,100.00
2023-03-23T21:23:06.595Z,100.00
2023-03-23T21:25:38.217Z,100.00
2023-03-23T21:28:09.731Z,100.00
2023-03-23T21:30:42.000Z,100.00
2023-03-23T21:33:11.779Z,100.00
2023-03-23T21:35:41.822Z,100.00
2023-03-23T21:38:14.509Z,100.00
2023-03-23T21:40:44.287Z,100.00
2023-03-23T21:43:17.114Z,100.00
2023-03-23T21:45:47.165Z,100.00
2023-03-23T21:48:16.798Z,100.00
2023-03-23T21:50:46.314Z,100.00
2023-03-23T21:53:18.515Z,100.00
2023-03-23T21:55:51.670Z,100.00
2023-03-23T21:58:24.631Z,100.00
2023-03-23T22:00:56.581Z,100.00
2023-03-23T22:03:27.246Z,100.00
2023-03-23T22:05:56.690Z,100.00
2023-03-23T22:08:28.729Z,100.00
2023-03-23T22:11:03.185Z,100.00
2023-03-23T22:13:36.079Z,100.00
2023-03-23T22:16:08.520Z,100.00
2023-03-23T22:18:38.384Z,100.00
2023-03-23T22:21:08.966Z,100.00
2023-03-23T22:23:38.264Z,100.00
2023-03-23T22:26:08.786Z,100.00
2023-03-23T22:28:40.537Z,100.00
2023-03-23T22:31:13.441Z,100.00
2023-03-23T22:33:42.757Z,100.00
2023-03-23T22:36:12.842Z,100.00
2023-03-23T22:38:44.566Z,100.00
2023-03-23T22:41:18.778Z,100.00
2023-03-23T22:43:50.772Z,100.00
2023-03-23T22:46:20.364Z,100.00
2023-03-23T22:48:49.740Z,100.00
2023-03-23T22:51:20.833Z,100.00
2023-03-23T22:53:50.753Z,100.00
2023-03-23T22:56:20.699Z,100.00
2023-03-23T22:58:52.268Z,100.00
2023-03-23T23:01:23.667Z,100.00
2023-03-23T23:03:53.047Z,100.00
2023-03-23T23:06:22.754Z,100.00
2023-03-23T23:08:53.064Z,100.00
2023-03-23T23:11:24.387Z,100.00
2023-03-23T23:13:55.804Z,100.00
2023-03-23T23:16:27.780Z,100.00
2023-03-23T23:18:57.812Z,100.00
2023-03-23T23:21:29.171Z,100.00
2023-03-23T23:23:59.046Z,100.00
2023-03-23T23:26:28.336Z,100.00
2023-03-23T23:28:59.421Z,100.00
2023-03-23T23:31:33.708Z,100.00
2023-03-23T23:34:22.399Z,100.00
2023-03-23T23:36:52.207Z,100.00
2023-03-23T23:39:21.660Z,100.00
2023-03-23T23:41:51.361Z,100.00
2023-03-23T23:44:22.255Z,100.00
2023-03-23T23:46:51.890Z,100.00
2023-03-23T23:49:23.185Z,100.00
2023-03-23T23:51:52.546Z,100.00
2023-03-23T23:54:30.250Z,100.00
2023-03-23T23:57:00.017Z,100.00
2023-03-23T23:59:32.983Z,100.00
